Time;durP1;ratioP1;P1;durP2;ratioP2;P2;SDS_P1;SDS_P2;PMS_P1;PMS_P2;Temp;Humidity;BMP_temperature;BMP_pressure;BME280_temperature;BME280_humidity;BME280_pressure;Samples;Min_cycle;Max_cycle;Signal;HPM_P1;HPM_P2
2021/12/26 00:01:26;;;;;;;136.93;61.40;;;;;;;2.40;73.15;99426.31;3156160;28;20070;-67
2021/12/26 00:02:59;;;;;;;126.32;59.15;;;;;;;2.33;73.28;99423.88;3156186;28;20097;-68
2021/12/26 00:04:32;;;;;;;134.07;61.55;;;;;;;2.34;73.09;99422.97;3156680;28;20211;-68
2021/12/26 00:06:08;;;;;;;124.53;59.10;;;;;;;2.29;73.36;99425.66;3155923;28;20436;-68
2021/12/26 00:07:39;;;;;;;130.63;59.33;;;;;;;2.25;73.34;99412.00;3153435;28;20044;-67
2021/12/26 00:09:12;;;;;;;125.45;58.42;;;;;;;2.18;73.50;99412.97;3156812;28;20074;-68
2021/12/26 00:10:46;;;;;;;133.02;59.05;;;;;;;2.30;73.25;99423.91;3155384;28;20135;-67
2021/12/26 00:12:18;;;;;;;128.25;59.05;;;;;;;2.26;73.48;99423.13;3155693;28;20063;-68
2021/12/26 00:13:52;;;;;;;128.45;59.38;;;;;;;2.28;73.44;99423.97;3156683;28;20048;-68
2021/12/26 00:15:25;;;;;;;128.82;59.15;;;;;;;2.29;73.42;99430.78;3154688;28;20048;-68
2021/12/26 00:16:57;;;;;;;127.32;58.97;;;;;;;2.29;73.27;99433.34;3154223;28;20097;-68
2021/12/26 00:18:29;;;;;;;127.85;57.78;;;;;;;1.97;73.13;99391.09;3154605;28;20055;-68
2021/12/26 00:20:01;;;;;;;131.35;58.38;;;;;;;2.30;73.24;99440.19;3156372;28;20345;-68
2021/12/26 00:21:33;;;;;;;120.68;56.33;;;;;;;2.27;73.20;99435.94;3156215;28;20440;-68
2021/12/26 00:23:05;;;;;;;117.57;56.30;;;;;;;1.77;73.08;99357.19;3155656;28;20056;-68
2021/12/26 00:24:36;;;;;;;128.93;56.92;;;;;;;2.15;73.18;99433.59;3153217;28;20044;-68
2021/12/26 00:26:10;;;;;;;120.07;58.03;;;;;;;2.20;73.33;99436.09;3155465;28;20044;-67
2021/12/26 00:27:41;;;;;;;124.93;58.70;;;;;;;2.20;73.19;99441.22;3155930;28;20052;-67
2021/12/26 00:29:13;;;;;;;123.10;57.40;;;;;;;2.21;73.29;99448.06;3155594;28;20053;-67
2021/12/26 00:30:45;;;;;;;119.78;57.28;;;;;;;2.20;73.33;99436.94;3153688;28;20075;-67
2021/12/26 00:32:17;;;;;;;128.65;55.88;;;;;;;2.18;73.18;99433.53;3154795;28;20039;-67
2021/12/26 00:33:49;;;;;;;116.45;55.45;;;;;;;2.18;73.25;99433.53;3156349;28;20409;-67
2021/12/26 00:35:23;;;;;;;115.75;54.90;;;;;;;2.17;73.36;99439.56;3155524;28;20109;-67
2021/12/26 00:36:54;;;;;;;;;;;;;;;1.96;73.48;99432.22;3154489;28;20101;-67
2021/12/26 00:38:26;;;;;;;119.30;50.92;;;;;;;2.00;73.88;99442.38;3156509;28;19924;-67
2021/12/26 00:39:58;;;;;;;112.53;52.28;;;;;;;2.03;73.63;99429.50;3154221;28;20048;-68
2021/12/26 00:41:31;;;;;;;114.45;54.67;;;;;;;1.75;73.60;99389.75;3156275;28;20051;-68
2021/12/26 00:43:02;;;;;;;120.78;51.78;;;;;;;2.04;73.61;99438.91;3156174;28;20461;-67
2021/12/26 00:44:39;;;;;;;111.00;52.30;;;;;;;2.09;73.56;99433.69;3155373;28;20123;-68
2021/12/26 00:46:11;;;;;;;104.32;49.75;;;;;;;2.06;73.70;99433.75;3156323;28;20052;-67
2021/12/26 00:47:42;;;;;;;110.72;49.65;;;;;;;1.91;73.65;99409.16;3155612;28;20048;-67
2021/12/26 00:49:14;;;;;;;105.15;48.85;;;;;;;2.06;73.55;99428.59;3153695;28;20055;-67
2021/12/26 00:50:46;;;;;;;113.50;49.90;;;;;;;2.08;73.77;99441.44;3156478;28;20437;-68
2021/12/26 00:52:17;;;;;;;103.20;48.58;;;;;;;2.09;73.62;99441.41;3155106;28;20064;-67
2021/12/26 00:53:49;;;;;;;105.68;51.40;;;;;;;2.08;73.63;99441.44;3155338;28;20040;-68
2021/12/26 00:55:21;;;;;;;114.50;51.45;;;;;;;2.09;73.90;99443.97;3156095;28;20055;-67
2021/12/26 00:56:56;;;;;;;112.32;51.40;;;;;;;2.11;73.68;99439.66;3155473;28;20448;-67
2021/12/26 00:58:28;;;;;;;110.38;50.97;;;;;;;2.04;73.73;99441.50;3152940;28;20044;-67
2021/12/26 01:00:00;;;;;;;110.43;50.97;;;;;;;2.08;73.86;99444.84;3155535;28;20567;-66
2021/12/26 01:01:32;;;;;;;113.95;51.25;;;;;;;2.06;73.81;99433.75;3154015;28;20440;-67
2021/12/26 01:03:05;;;;;;;112.90;51.13;;;;;;;2.05;73.83;99427.75;3156277;28;20052;-67
2021/12/26 01:04:39;;;;;;;110.30;51.38;;;;;;;2.02;73.77;99427.81;3153083;28;20482;-67
2021/12/26 01:06:11;;;;;;;111.05;52.13;;;;;;;2.05;73.67;99426.91;3153079;28;20048;-67
2021/12/26 01:07:53;;;;;;;106.93;50.63;;;;;;;2.03;73.80;99428.66;3156401;28;20063;-68
2021/12/26 01:09:28;;;;;;;112.45;49.45;;;;;;;2.02;73.75;99426.97;3154868;28;20048;-67
2021/12/26 01:11:05;;;;;;;110.07;50.08;;;;;;;2.01;73.94;99430.38;3155669;28;20044;-67
2021/12/26 01:12:40;;;;;;;110.55;50.28;;;;;;;2.00;73.77;99429.56;3153085;28;20101;-67
2021/12/26 01:14:14;;;;;;;112.10;52.35;;;;;;;2.01;74.00;99425.25;3152695;28;20132;-67
2021/12/26 01:15:47;;;;;;;107.63;49.60;;;;;;;1.87;73.72;99417.78;3156336;28;20051;-67
2021/12/26 01:17:22;;;;;;;111.45;50.63;;;;;;;1.97;73.82;99428.75;3153377;28;20044;-67
2021/12/26 01:19:00;;;;;;;108.72;49.80;;;;;;;1.94;73.89;99429.66;3154451;28;20101;-68
2021/12/26 01:20:45;;;;;;;117.15;52.55;;;;;;;1.91;73.77;99418.59;3155913;28;20075;-68
2021/12/26 01:22:18;;;;;;;114.03;50.88;;;;;;;1.91;74.00;99419.44;3154764;28;20055;-68
2021/12/26 01:23:54;;;;;;;112.95;51.10;;;;;;;1.89;74.10;99421.16;3154544;28;20051;-67
2021/12/26 01:25:26;;;;;;;112.20;52.22;;;;;;;1.87;74.05;99412.66;3155167;28;20510;-67
2021/12/26 01:26:58;;;;;;;108.63;51.55;;;;;;;1.90;73.99;99407.47;3155183;28;20040;-67
2021/12/26 01:28:32;;;;;;;118.93;52.53;;;;;;;1.91;73.93;99408.31;3155637;28;20040;-68
2021/12/26 01:30:05;;;;;;;122.65;52.60;;;;;;;1.91;74.01;99413.44;3155097;28;20075;-69
2021/12/26 01:31:37;;;;;;;106.03;51.53;;;;;;;1.85;74.26;99409.25;3153532;28;20052;-68
2021/12/26 01:33:10;;;;;;;110.15;50.97;;;;;;;1.84;74.54;99410.13;3155785;28;20060;-68
2021/12/26 01:34:43;;;;;;;112.05;52.22;;;;;;;1.80;74.55;99405.91;3155093;28;20054;-69
2021/12/26 01:36:15;;;;;;;116.40;52.35;;;;;;;1.84;74.52;99409.31;3153424;28;20047;-68
2021/12/26 01:37:46;;;;;;;105.55;49.30;;;;;;;1.84;74.57;99407.56;3154984;28;20044;-67
2021/12/26 01:39:18;;;;;;;118.97;52.28;;;;;;;1.84;74.49;99415.28;3154648;28;20522;-68
2021/12/26 01:40:52;;;;;;;118.05;51.80;;;;;;;1.86;74.45;99408.38;3155229;28;20701;-70
2021/12/26 01:42:26;;;;;;;113.43;52.47;;;;;;;1.83;74.37;99400.72;3154922;28;20080;-68
2021/12/26 01:44:04;;;;;;;113.22;50.13;;;;;;;1.80;74.57;99401.66;3154710;28;20066;-68
2021/12/26 01:45:35;;;;;;;110.72;50.90;;;;;;;1.82;74.56;99420.41;3155419;28;20047;-68
2021/12/26 01:47:07;;;;;;;112.82;51.25;;;;;;;1.84;74.69;99409.31;3154519;28;20144;-68
2021/12/26 01:48:39;;;;;;;115.25;52.33;;;;;;;1.82;74.39;99405.00;3155799;28;20670;-68
2021/12/26 01:50:11;;;;;;;118.88;53.45;;;;;;;1.81;74.65;99394.78;3155021;28;20048;-68
2021/12/26 01:51:45;;;;;;;120.20;53.30;;;;;;;1.85;74.48;99393.00;3155172;28;20059;-68
2021/12/26 01:53:19;;;;;;;112.85;51.13;;;;;;;1.84;74.41;99394.75;3156315;28;20521;-68
2021/12/26 01:55:01;;;;;;;118.82;53.25;;;;;;;1.80;74.34;99390.50;3154713;28;20126;-68
2021/12/26 01:56:33;;;;;;;118.53;54.30;;;;;;;1.80;74.34;99391.38;3153200;28;20510;-68
2021/12/26 01:58:07;;;;;;;106.85;50.67;;;;;;;1.82;74.47;99391.34;3155273;28;20433;-68
2021/12/26 01:59:42;;;;;;;113.38;51.63;;;;;;;1.83;74.45;99395.59;3154663;28;20055;-69
2021/12/26 02:01:14;;;;;;;120.95;52.40;;;;;;;1.28;74.33;99312.63;3155148;28;20055;-69
2021/12/26 02:02:46;;;;;;;110.18;52.95;;;;;;;1.79;74.40;99388.81;3155149;28;20048;-69
2021/12/26 02:04:18;;;;;;;115.25;52.65;;;;;;;1.77;74.58;99386.25;3153240;28;20055;-69
2021/12/26 02:05:50;;;;;;;113.70;52.95;;;;;;;1.77;74.51;99390.56;3155465;28;20419;-68
2021/12/26 02:07:22;;;;;;;119.03;53.13;;;;;;;1.77;74.56;99385.41;3154964;28;20181;-69
2021/12/26 02:08:54;;;;;;;115.95;53.47;;;;;;;1.78;74.38;99392.28;3155700;28;20437;-69
2021/12/26 02:10:26;;;;;;;110.60;52.03;;;;;;;1.79;74.61;99399.09;3155547;28;20155;-69
2021/12/26 02:11:58;;;;;;;108.22;51.58;;;;;;;1.78;74.52;99394.84;3154182;28;20101;-69
2021/12/26 02:13:30;;;;;;;110.72;52.38;;;;;;;1.77;74.66;99393.13;3153658;28;20051;-68
2021/12/26 02:15:04;;;;;;;115.75;53.42;;;;;;;1.79;74.56;99397.38;3154759;28;20109;-68
2021/12/26 02:16:36;;;;;;;111.85;52.38;;;;;;;1.78;74.62;99403.38;3154103;28;20467;-68
2021/12/26 02:18:09;;;;;;;110.88;52.55;;;;;;;1.30;74.55;99321.16;3154419;28;20110;-68
2021/12/26 02:19:42;;;;;;;115.30;52.58;;;;;;;1.73;74.41;99394.91;3153833;28;20040;-68
2021/12/26 02:21:26;;;;;;;106.65;51.80;;;;;;;1.75;74.54;99398.28;3155103;28;20079;-68
2021/12/26 02:23:03;;;;;;;115.07;53.15;;;;;;;1.74;74.67;99413.72;3158654;28;20505;-67
2021/12/26 02:25:08;;;;;;;113.50;52.40;;;;;;;1.76;74.49;99404.28;3157029;28;20055;-67
2021/12/26 02:28:35;;;;;;;105.72;51.85;;;;;;;1.68;74.80;99417.22;3128462;28;20078;-67
2021/12/26 02:30:11;;;;;;;125.28;54.13;;;;;;;1.75;74.60;99415.44;3155686;28;20067;-67
2021/12/26 02:31:43;;;;;;;113.60;50.88;;;;;;;1.43;74.58;99367.16;3157278;28;20044;-67
2021/12/26 02:33:16;;;;;;;115.15;51.95;;;;;;;1.75;74.72;99410.28;3156710;28;20040;-67
2021/12/26 02:34:49;;;;;;;114.22;53.05;;;;;;;1.65;74.66;99381.31;3156766;28;20178;-67
2021/12/26 02:36:21;;;;;;;110.35;50.97;;;;;;;1.74;74.71;99399.16;3156715;28;20117;-67
2021/12/26 02:37:53;;;;;;;120.72;51.50;;;;;;;1.77;74.56;99393.13;3155495;28;20047;-67
2021/12/26 02:39:25;;;;;;;113.43;51.75;;;;;;;1.78;74.71;99390.53;3157930;28;20507;-67
2021/12/26 02:40:58;;;;;;;116.82;51.35;;;;;;;1.79;74.55;99388.81;3157058;28;20183;-67
2021/12/26 02:42:30;;;;;;;112.47;51.90;;;;;;;1.71;74.68;99377.81;3156681;28;20125;-68
2021/12/26 02:44:03;;;;;;;110.20;51.65;;;;;;;1.81;74.65;99397.34;3157375;28;20052;-67
2021/12/26 02:45:36;;;;;;;102.78;49.58;;;;;;;1.77;74.56;99391.41;3157420;28;20052;-67
2021/12/26 02:47:07;;;;;;;105.57;50.22;;;;;;;1.81;74.58;99402.50;3158011;28;20044;-67
2021/12/26 02:48:40;;;;;;;114.07;51.38;;;;;;;1.81;74.49;99400.75;3156698;28;20044;-68
2021/12/26 02:50:16;;;;;;;115.82;53.30;;;;;;;1.81;74.49;99400.75;3156851;28;20105;-67
2021/12/26 02:51:49;;;;;;;107.88;49.90;;;;;;;1.51;74.62;99355.03;3158057;28;20081;-68
2021/12/26 02:53:21;;;;;;;116.53;52.22;;;;;;;1.83;74.62;99400.72;3155958;28;20052;-68
2021/12/26 02:54:52;;;;;;;109.28;51.65;;;;;;;1.85;74.69;99400.72;3157618;28;20127;-68
2021/12/26 02:56:24;;;;;;;111.03;52.53;;;;;;;1.73;74.68;99376.94;3157142;28;20081;-69
2021/12/26 02:57:59;;;;;;;106.40;51.38;;;;;;;1.86;74.53;99405.81;3156299;28;20056;-69
2021/12/26 02:59:32;;;;;;;111.40;50.70;;;;;;;1.75;74.75;99382.06;3154477;28;20058;-68
2021/12/26 03:01:09;;;;;;;104.88;49.47;;;;;;;1.88;74.64;99392.97;3156011;28;20072;-69
2021/12/26 03:02:40;;;;;;;110.38;51.03;;;;;;;1.84;74.67;99393.91;3155087;28;20052;-68
2021/12/26 03:04:12;;;;;;;111.15;50.60;;;;;;;1.87;74.64;99397.25;3157902;28;20048;-69
2021/12/26 03:05:47;;;;;;;114.30;52.33;;;;;;;1.81;74.61;99375.09;3156158;28;20067;-68
2021/12/26 03:07:19;;;;;;;111.97;50.88;;;;;;;1.84;74.63;99369.06;3156592;28;20044;-69
2021/12/26 03:08:54;;;;;;;109.45;49.78;;;;;;;1.87;74.57;99375.88;3157064;28;20044;-68
2021/12/26 03:10:27;;;;;;;106.60;49.67;;;;;;;1.86;74.66;99369.88;3155849;28;20550;-68
2021/12/26 03:12:00;;;;;;;102.78;49.30;;;;;;;1.87;74.71;99370.75;3155000;28;20040;-67
2021/12/26 03:13:32;;;;;;;121.72;52.10;;;;;;;1.90;74.64;99381.78;3156335;28;20109;-67
2021/12/26 03:15:04;;;;;;;105.70;49.15;;;;;;;1.92;74.70;99390.28;3156260;28;20048;-68
2021/12/26 03:16:36;;;;;;;108.95;49.95;;;;;;;1.90;74.60;99375.81;3156960;28;20047;-67
2021/12/26 03:18:09;;;;;;;112.40;50.17;;;;;;;1.95;74.75;99385.16;3156007;28;20048;-68
2021/12/26 03:19:41;;;;;;;103.60;48.45;;;;;;;1.91;74.73;99378.34;3154661;28;20078;-69
2021/12/26 03:21:15;;;;;;;105.20;50.88;;;;;;;1.98;74.71;99382.53;3156692;28;20048;-68
2021/12/26 03:22:46;;;;;;;105.60;49.85;;;;;;;1.93;74.54;99384.31;3155645;28;20055;-68
2021/12/26 03:24:18;;;;;;;110.07;51.90;;;;;;;2.01;74.54;99392.75;3156721;28;20044;-68
2021/12/26 03:25:51;;;;;;;101.28;48.50;;;;;;;2.01;74.64;99392.75;3156911;28;20044;-68
2021/12/26 03:27:22;;;;;;;106.00;50.03;;;;;;;2.02;74.60;99391.84;3154421;28;20134;-69
2021/12/26 03:28:53;;;;;;;106.63;51.15;;;;;;;2.02;74.57;99391.84;3157067;28;20306;-69
2021/12/26 03:30:27;;;;;;;109.78;50.78;;;;;;;2.08;74.43;99387.50;3156129;28;20048;-68
2021/12/26 03:31:59;;;;;;;104.15;49.45;;;;;;;2.04;74.50;99390.13;3155267;28;20101;-68
2021/12/26 03:33:31;;;;;;;110.18;51.75;;;;;;;2.09;74.49;99396.88;3157114;28;20056;-69
2021/12/26 03:35:04;;;;;;;104.13;48.85;;;;;;;1.86;74.49;99359.59;3154184;28;20063;-69
2021/12/26 03:36:38;;;;;;;101.47;48.28;;;;;;;2.11;74.48;99395.16;3154943;28;20048;-69
2021/12/26 03:38:12;;;;;;;106.38;50.03;;;;;;;2.08;74.39;99390.91;3155977;28;20109;-68
2021/12/26 03:39:43;;;;;;;113.32;49.03;;;;;;;2.05;74.42;99383.25;3156113;28;20048;-68
2021/12/26 03:41:15;;;;;;;99.57;49.30;;;;;;;2.02;74.63;99391.00;3156836;28;20097;-69
2021/12/26 03:42:46;;;;;;;104.55;48.28;;;;;;;1.75;74.58;99336.69;3156087;28;21778;-68
2021/12/26 03:44:18;;;;;;;102.78;47.80;;;;;;;2.10;74.49;99402.00;3153302;28;20260;-68
2021/12/26 03:45:52;;;;;;;103.30;48.83;;;;;;;2.11;74.58;99402.84;3156748;28;20040;-69
2021/12/26 03:47:24;;;;;;;110.20;49.67;;;;;;;2.09;74.45;99397.72;3154778;28;20666;-69
2021/12/26 03:48:59;;;;;;;102.13;49.17;;;;;;;2.13;74.42;99398.53;3155391;28;20040;-68
2021/12/26 03:50:32;;;;;;;103.68;48.80;;;;;;;2.11;74.48;99395.16;3155843;28;20052;-66
2021/12/26 03:52:05;;;;;;;;;;;;;;;1.90;74.78;99397.19;3156158;28;20050;-68
2021/12/26 03:53:37;;;;;;;103.68;45.83;;;;;;;1.94;74.93;99406.53;3156747;28;20354;-68
2021/12/26 03:55:09;;;;;;;99.22;46.72;;;;;;;1.98;75.02;99408.19;3156079;28;20113;-68
2021/12/26 03:56:41;;;;;;;103.43;48.47;;;;;;;2.01;74.79;99409.84;3156109;28;20491;-68
2021/12/26 03:58:13;;;;;;;105.22;49.95;;;;;;;2.01;74.74;99397.88;3157021;28;20100;-67
2021/12/26 03:59:46;;;;;;;102.20;46.90;;;;;;;2.05;74.78;99402.06;3155746;28;20570;-68
2021/12/26 04:01:18;;;;;;;106.40;49.70;;;;;;;2.03;74.54;99408.09;3153425;28;20044;-68
2021/12/26 04:02:51;;;;;;;99.55;48.08;;;;;;;2.00;74.47;99409.00;3155957;28;20074;-68
2021/12/26 04:04:22;;;;;;;97.30;49.40;;;;;;;2.07;74.51;99414.03;3155576;28;20051;-67
2021/12/26 04:05:53;;;;;;;101.75;49.95;;;;;;;2.08;74.50;99410.63;3155693;28;20055;-68
2021/12/26 04:07:27;;;;;;;108.80;50.03;;;;;;;2.04;74.60;99410.66;3156466;28;20079;-69
2021/12/26 04:08:58;;;;;;;105.32;49.05;;;;;;;2.01;74.56;99418.44;3156086;28;20100;-69
2021/12/26 04:10:31;;;;;;;104.85;48.95;;;;;;;1.99;74.50;99416.75;3156991;28;20101;-69
2021/12/26 04:12:03;;;;;;;105.85;48.75;;;;;;;2.01;74.68;99421.00;3155314;28;20122;-68
2021/12/26 04:13:35;;;;;;;105.17;50.67;;;;;;;1.96;74.75;99412.50;3155478;28;20055;-68
2021/12/26 04:15:10;;;;;;;103.47;49.65;;;;;;;1.94;74.61;99408.25;3156897;28;20321;-69
2021/12/26 04:16:42;;;;;;;109.50;50.40;;;;;;;1.93;74.66;99412.56;3155158;28;20044;-69
2021/12/26 04:18:14;;;;;;;109.57;49.95;;;;;;;1.98;74.81;99410.78;3153414;28;20055;-69
2021/12/26 04:19:46;;;;;;;98.18;49.30;;;;;;;1.95;74.66;99418.53;3156040;28;20040;-68
2021/12/26 04:21:18;;;;;;;110.38;51.05;;;;;;;2.01;74.86;99432.97;3153652;28;20112;-68
2021/12/26 04:22:50;;;;;;;109.82;51.75;;;;;;;2.02;74.63;99422.69;3157402;28;20040;-68
2021/12/26 04:24:22;;;;;;;107.32;50.90;;;;;;;2.01;74.86;99417.56;3155666;28;20048;-68
2021/12/26 04:25:54;;;;;;;106.22;50.72;;;;;;;1.97;74.96;99414.19;3153136;28;20128;-68
2021/12/26 04:27:26;;;;;;;106.75;50.38;;;;;;;2.02;74.82;99426.97;3156884;28;20386;-68
2021/12/26 04:28:58;;;;;;;108.32;50.05;;;;;;;2.01;74.79;99425.25;3155279;28;20048;-68
2021/12/26 04:30:31;;;;;;;121.97;58.83;;;;;;;2.01;74.64;99426.13;3155367;28;20093;-68
2021/12/26 04:32:03;;;;;;;152.05;66.15;;;;;;;1.86;74.63;99405.81;3156621;28;20046;-69
2021/12/26 04:33:35;;;;;;;154.27;67.60;;;;;;;1.66;74.56;99383.03;3155069;28;20051;-68
2021/12/26 04:35:08;;;;;;;138.25;63.85;;;;;;;1.94;74.55;99424.50;3153388;28;20089;-68
2021/12/26 04:36:40;;;;;;;138.85;62.85;;;;;;;1.91;74.57;99421.16;3153132;28;20048;-68
2021/12/26 04:38:13;;;;;;;132.25;61.08;;;;;;;1.90;74.43;99425.44;3153806;28;20143;-68
2021/12/26 04:39:45;;;;;;;;;;;;;;;1.68;74.45;99430.06;3156873;28;20050;-69
2021/12/26 04:41:17;;;;;;;131.63;58.55;;;;;;;1.72;74.83;99431.72;3155072;28;19924;-68
2021/12/26 04:42:50;;;;;;;134.68;60.70;;;;;;;1.74;74.51;99414.56;3154220;28;20053;-67
2021/12/26 04:44:24;;;;;;;129.60;58.13;;;;;;;1.72;74.64;99416.31;3155850;28;20075;-68
2021/12/26 04:45:56;;;;;;;126.13;56.58;;;;;;;1.78;74.30;99425.66;3155312;28;20044;-68
2021/12/26 04:47:28;;;;;;;126.70;55.50;;;;;;;1.74;74.31;99414.56;3154179;28;20064;-68
2021/12/26 04:49:00;;;;;;;126.05;55.83;;;;;;;1.78;74.20;99429.06;3155505;28;20140;-68
2021/12/26 04:50:32;;;;;;;120.60;57.72;;;;;;;1.73;74.27;99414.59;3155124;28;20067;-67
2021/12/26 04:52:05;;;;;;;120.00;55.45;;;;;;;1.74;74.11;99426.53;3156538;28;20043;-68
2021/12/26 04:53:40;;;;;;;127.07;57.28;;;;;;;1.77;74.22;99426.50;3155408;28;20048;-67
2021/12/26 04:55:14;;;;;;;116.40;54.25;;;;;;;1.76;74.23;99429.94;3154935;28;20504;-67
2021/12/26 04:56:46;;;;;;;113.05;52.83;;;;;;;1.74;74.08;99417.13;3156408;28;20040;-67
2021/12/26 04:58:17;;;;;;;111.13;52.28;;;;;;;1.75;73.99;99420.56;3154978;28;20044;-67
2021/12/26 04:59:49;;;;;;;120.20;54.15;;;;;;;1.77;74.04;99431.63;3155958;28;20048;-67
2021/12/26 05:01:21;;;;;;;110.65;52.40;;;;;;;1.77;74.23;99429.06;3154323;28;20067;-68
2021/12/26 05:02:53;;;;;;;112.80;49.38;;;;;;;1.73;74.10;99424.84;3155078;28;20048;-67
2021/12/26 05:04:25;;;;;;;106.68;50.17;;;;;;;1.76;74.12;99435.91;3155021;28;20044;-67
2021/12/26 05:05:57;;;;;;;102.85;49.88;;;;;;;1.78;74.19;99435.91;3155485;28;20135;-68
2021/12/26 05:07:29;;;;;;;109.38;52.15;;;;;;;1.77;74.15;99429.06;3154730;28;20051;-68
2021/12/26 05:09:02;;;;;;;106.78;49.80;;;;;;;1.75;74.21;99428.25;3156417;28;20481;-68
2021/12/26 05:10:34;;;;;;;99.18;48.42;;;;;;;1.78;74.32;99438.47;3154723;28;20048;-67
2021/12/26 05:12:06;;;;;;;111.75;50.42;;;;;;;1.76;74.27;99425.66;3154185;28;20044;-68
2021/12/26 05:13:38;;;;;;;102.80;47.55;;;;;;;1.76;74.26;99422.25;3155470;28;20048;-68
2021/12/26 05:15:11;;;;;;;102.35;48.25;;;;;;;1.78;74.33;99420.50;3155152;28;20055;-68
2021/12/26 05:16:43;;;;;;;;;;;;;;;1.60;74.37;99424.22;3156172;28;20109;-69
2021/12/26 05:18:15;;;;;;;94.10;45.15;;;;;;;1.48;74.95;99402.13;3155064;28;19920;-68
2021/12/26 05:19:46;;;;;;;101.50;47.25;;;;;;;1.57;74.75;99409.69;3154840;28;20049;-69
2021/12/26 05:21:18;;;;;;;101.53;45.50;;;;;;;1.69;74.74;99430.94;3155627;28;20048;-69
2021/12/26 05:22:52;;;;;;;105.20;45.97;;;;;;;1.66;74.81;99423.28;3155431;28;20094;-69
2021/12/26 05:24:25;;;;;;;97.43;45.50;;;;;;;1.68;74.77;99419.78;3155167;28;20040;-68
2021/12/26 05:25:57;;;;;;;97.82;45.50;;;;;;;1.61;74.74;99412.22;3156017;28;20206;-68
2021/12/26 05:27:29;;;;;;;99.80;45.47;;;;;;;1.71;74.69;99417.16;3154852;28;20048;-69
2021/12/26 05:29:01;;;;;;;100.28;45.30;;;;;;;1.74;74.66;99421.41;3154042;28;20044;-68
2021/12/26 05:30:32;;;;;;;96.80;46.78;;;;;;;1.71;74.78;99413.75;3155501;28;20555;-69
2021/12/26 05:32:05;;;;;;;98.38;45.38;;;;;;;1.67;74.62;99402.69;3154781;28;20044;-68
2021/12/26 05:33:37;;;;;;;97.07;45.03;;;;;;;1.64;74.54;99401.91;3155490;28;20105;-68
2021/12/26 05:35:10;;;;;;;98.40;45.40;;;;;;;1.74;74.58;99411.13;3155295;28;20382;-67
2021/12/26 05:36:42;;;;;;;94.18;44.15;;;;;;;1.80;74.62;99417.06;3153798;28;20535;-67
2021/12/26 05:38:14;;;;;;;93.72;44.47;;;;;;;1.77;74.65;99401.66;3155004;28;20047;-68
2021/12/26 05:39:47;;;;;;;98.38;47.28;;;;;;;1.86;74.47;99410.09;3154613;28;20044;-68
2021/12/26 05:41:19;;;;;;;93.72;44.47;;;;;;;1.81;74.70;99408.47;3155895;28;20044;-67
2021/12/26 05:42:51;;;;;;;94.68;45.88;;;;;;;1.84;74.72;99417.84;3155949;28;20062;-67
2021/12/26 05:44:23;;;;;;;94.47;45.60;;;;;;;1.87;74.74;99427.22;3153123;28;20063;-67
2021/12/26 05:45:55;;;;;;;94.25;45.25;;;;;;;1.87;74.67;99422.94;3154291;28;20198;-67
2021/12/26 05:47:27;;;;;;;97.93;46.25;;;;;;;1.89;74.61;99426.31;3155161;28;20553;-67
2021/12/26 05:49:00;;;;;;;99.25;45.80;;;;;;;1.91;74.73;99434.84;3154329;28;20055;-67
2021/12/26 05:50:32;;;;;;;94.78;46.65;;;;;;;1.92;74.79;99438.25;3156265;28;20444;-67
2021/12/26 05:52:05;;;;;;;92.20;44.45;;;;;;;1.95;74.61;99446.78;3154826;28;20089;-68
2021/12/26 05:53:37;;;;;;;101.00;49.63;;;;;;;1.94;74.74;99445.06;3153859;28;20105;-68
2021/12/26 05:55:11;;;;;;;104.25;49.17;;;;;;;1.99;74.58;99440.69;3150055;28;20047;-68
2021/12/26 05:56:43;;;;;;;97.22;46.70;;;;;;;1.94;74.54;99424.50;3144034;28;20109;-68
2021/12/26 05:58:15;;;;;;;102.72;48.03;;;;;;;1.97;74.52;99429.59;3141539;28;20486;-68
2021/12/26 05:59:48;;;;;;;104.47;49.55;;;;;;;2.03;74.56;99441.50;3140410;28;20145;-68
2021/12/26 06:01:20;;;;;;;99.40;48.92;;;;;;;2.03;74.58;99447.47;3145967;28;20105;-67
2021/12/26 06:02:54;;;;;;;97.50;47.43;;;;;;;2.03;74.51;99439.78;3145421;28;20052;-67
2021/12/26 06:04:26;;;;;;;96.57;46.83;;;;;;;2.02;74.52;99443.22;3148058;28;20314;-67
2021/12/26 06:05:58;;;;;;;104.35;47.33;;;;;;;2.05;74.35;99442.31;3143405;28;20879;-67
2021/12/26 06:07:30;;;;;;;96.50;47.75;;;;;;;2.08;74.22;99439.72;3146641;28;20062;-68
2021/12/26 06:09:04;;;;;;;97.13;47.72;;;;;;;2.10;74.30;99437.09;3147471;28;20159;-67
2021/12/26 06:10:38;;;;;;;95.65;45.55;;;;;;;2.12;74.32;99449.06;3148385;28;20509;-64
2021/12/26 06:12:10;;;;;;;;;;;;;;;1.93;74.33;99455.38;3149223;28;20349;-68
2021/12/26 06:13:42;;;;;;;98.60;44.67;;;;;;;1.97;74.58;99455.28;3149168;28;19924;-68
2021/12/26 06:15:14;;;;;;;94.35;44.58;;;;;;;2.07;74.54;99455.13;3146440;28;20809;-66
2021/12/26 06:16:46;;;;;;;95.13;46.75;;;;;;;2.10;74.19;99452.50;3147527;28;20090;-65
2021/12/26 06:18:18;;;;;;;99.97;46.05;;;;;;;2.14;74.27;99464.44;3147438;28;20565;-65
2021/12/26 06:19:49;;;;;;;89.75;47.78;;;;;;;2.18;74.32;99458.38;3148706;28;20055;-66
2021/12/26 06:21:22;;;;;;;98.70;47.13;;;;;;;2.22;74.14;99460.88;3147988;28;20102;-66
2021/12/26 06:22:53;;;;;;;98.72;48.30;;;;;;;2.23;74.23;99456.59;3142803;28;20155;-65
2021/12/26 06:24:26;;;;;;;101.88;48.30;;;;;;;2.26;74.19;99459.09;3148405;28;20408;-65
2021/12/26 06:25:59;;;;;;;90.20;46.42;;;;;;;2.30;74.15;99460.75;3147695;28;20659;-64
2021/12/26 06:27:34;;;;;;;96.65;46.88;;;;;;;2.31;74.08;99465.03;3144372;28;20055;-65
2021/12/26 06:29:06;;;;;;;102.60;49.17;;;;;;;2.33;74.09;99478.66;3148800;28;20666;-67
2021/12/26 06:30:38;;;;;;;103.68;49.50;;;;;;;2.35;74.07;99471.78;3148411;28;20047;-68
2021/12/26 06:32:10;;;;;;;101.88;46.83;;;;;;;2.39;74.12;99482.88;3145557;28;20088;-68
2021/12/26 06:33:42;;;;;;;106.88;50.85;;;;;;;2.40;73.96;99484.59;3147260;28;20071;-68
2021/12/26 06:35:15;;;;;;;100.22;49.45;;;;;;;2.41;73.98;99487.09;3145792;28;20052;-69
2021/12/26 06:36:47;;;;;;;108.03;52.35;;;;;;;2.40;73.96;99484.59;3148846;28;20055;-68
2021/12/26 06:38:19;;;;;;;105.97;51.63;;;;;;;2.42;74.01;99480.25;3145451;28;20062;-68
2021/12/26 06:39:51;;;;;;;123.20;59.30;;;;;;;2.42;73.97;99470.81;3146585;28;20508;-69
2021/12/26 06:41:26;;;;;;;120.28;59.05;;;;;;;2.45;73.96;99478.47;3146910;28;20186;-68
2021/12/26 06:42:58;;;;;;;102.63;48.63;;;;;;;2.44;73.85;99469.06;3146698;28;20139;-69
2021/12/26 06:44:30;;;;;;;94.25;46.25;;;;;;;2.46;73.68;99477.59;3152083;28;20144;-68
2021/12/26 06:46:03;;;;;;;102.72;45.72;;;;;;;2.47;73.82;99460.47;3142857;28;20507;-68
2021/12/26 06:47:35;;;;;;;101.40;49.17;;;;;;;2.45;73.45;99450.19;3142670;28;20215;-68
2021/12/26 06:49:07;;;;;;;103.88;51.08;;;;;;;2.26;73.41;99415.44;3145478;28;20075;-68
2021/12/26 06:50:39;;;;;;;130.73;60.50;;;;;;;2.49;73.31;99454.41;3145418;28;20162;-69
2021/12/26 06:52:12;;;;;;;101.82;47.92;;;;;;;2.57;73.14;99466.28;3142505;28;20053;-67
2021/12/26 06:53:45;;;;;;;99.07;45.97;;;;;;;2.57;73.33;99471.41;3142518;28;20082;-68
2021/12/26 06:55:18;;;;;;;99.75;47.28;;;;;;;2.58;73.14;99465.41;3143046;28;20108;-68
2021/12/26 06:56:51;;;;;;;123.85;56.78;;;;;;;2.61;73.04;99468.78;3142247;28;20052;-69
2021/12/26 06:58:24;;;;;;;124.95;56.25;;;;;;;2.63;73.09;99471.31;3144335;28;20056;-69
2021/12/26 06:59:56;;;;;;;96.03;45.03;;;;;;;2.68;73.07;99472.91;3143180;28;20592;-69
2021/12/26 07:01:28;;;;;;;85.72;42.70;;;;;;;2.64;72.83;99462.72;3141150;28;20052;-69
2021/12/26 07:03:00;;;;;;;84.32;41.95;;;;;;;2.73;72.87;99467.69;3143394;28;20052;-69
2021/12/26 07:04:32;;;;;;;87.65;41.75;;;;;;;2.75;72.88;99468.50;3143993;28;20301;-69
2021/12/26 07:06:04;;;;;;;83.38;39.83;;;;;;;2.79;72.78;99466.75;3142635;28;20164;-68
2021/12/26 07:07:36;;;;;;;82.88;39.58;;;;;;;2.80;72.89;99469.28;3142380;28;20299;-67
2021/12/26 07:09:08;;;;;;;83.95;39.63;;;;;;;2.69;72.76;99451.50;3143503;28;20103;-76
2021/12/26 07:10:41;;;;;;;87.00;40.65;;;;;;;2.84;72.70;99476.06;3143154;28;20051;-74